KLFT/LFT METAR and TAF weather

Enter ICAO airport designator
Station Type Date Time Source
KLFT METAR 2020/07/15 03:53 UTC NOAA

KLFT 150353Z AUTO 20005KT 10SM CLR 27/23 A3000 RMK AO2 SLP158 T02720233 PWINO


Station Type Date Time Source
KLFT Decoded METAR 2020/07/15 03:53 UTC NOAA

LAFAYETTE REGIONAL AIRPORT, LA, United States (KLFT) 30-12N 092-00W 11M
Jul 14, 2020 - 11:53 PM EDT / 2020.07.15 0353 UTC
Wind: from the SSW (200 degrees) at 6 MPH (5 KT):0
Visibility: 10 mile(s):0
Sky conditions: clear
Temperature: 81.0 F (27.2 C)
Dew Point: 73.9 F (23.3 C)
Relative Humidity: 79%
Pressure (altimeter): 30 in. Hg (1015 hPa)
ob: KLFT 150353Z AUTO 20005KT 10SM CLR 27/23 A3000 RMK AO2 SLP158 T02720233 PWINO
cycle: 4

Station Type Date Time Source
KLFT TAF 2020/07/14 19:27 UTC NOAA

TAF
AMD KLFT 141924Z 1419/1518 VRB05KT P6SM SCT045
FM150200 VRB05KT P6SM SCT250
TEMPO 1514/1518 SCT019 BKN027

Example: see airport list